Time;durP1;ratioP1;P1;durP2;ratioP2;P2;SDS_P1;SDS_P2;PMS_P1;PMS_P2;Temp;Humidity;BMP_temperature;BMP_pressure;BME280_temperature;BME280_humidity;BME280_pressure;Samples;Min_cycle;Max_cycle;Signal;HPM_P1;HPM_P2
2021/01/05 00:00:38;;;;;;;;;;;0.90;99.90;;;-2.00;84.15;94949.69;10451031;28;2153;-82
2021/01/05 00:05:42;;;;;;;;;;;0.00;99.90;;;-2.01;84.23;94956.00;10448253;28;1919;-80
2021/01/05 00:10:44;;;;;;;;;;;-1.10;99.90;;;-2.12;84.46;94954.84;10434763;28;2041;-81
2021/01/05 00:15:45;;;;;;;;;;;-1.10;99.90;;;-2.10;85.10;94962.53;10455891;28;2085;-83
2021/01/05 00:20:50;;;;;;;;;;;0.00;99.90;;;-2.14;84.90;94956.09;10464039;28;1243;-83
2021/01/05 00:25:53;;;;;;;;;;;0.80;99.90;;;-2.11;85.23;94961.72;10457373;28;1920;-82
2021/01/05 00:30:57;;;;;;;;;;;-1.10;99.90;;;-2.11;84.73;94955.66;10452516;28;2123;-81
2021/01/05 00:35:59;;;;;;;;;;;-1.10;99.90;;;-2.02;84.46;94959.66;10471204;28;1934;-82
2021/01/05 00:41:02;;;;;;;;;;;0.20;99.90;;;-1.95;84.32;94965.66;10477026;28;1807;-82
2021/01/05 00:46:06;;;;;;;;;;;-1.00;99.90;;;-2.11;83.70;94971.44;10469331;28;2149;-81
2021/01/05 00:51:08;;;;;;;;;;;0.60;99.90;;;-2.18;84.30;94969.69;10462305;28;1993;-83
2021/01/05 00:56:11;;;;;;;;;;;-1.20;99.90;;;-2.06;84.29;94976.88;10479579;28;1958;-83
2021/01/05 01:01:14;;;;;;;;;;;0.10;99.90;;;-1.98;83.73;94971.34;10462712;28;1702;-82
2021/01/05 01:06:16;;;;;;;;;;;0.00;99.90;;;-1.87;83.27;94978.56;10486856;28;2034;-82
2021/01/05 01:11:18;;;;;;;;;;;0.40;99.90;;;-1.95;82.87;94976.19;10445762;28;1815;-81
2021/01/05 01:16:20;;;;;;;;;;;-0.80;99.90;;;-2.21;84.11;94972.75;10447347;28;1919;-83
2021/01/05 01:21:21;;;;;;;;;;;-1.10;99.90;;;-2.20;84.90;94973.56;10449124;28;2029;-83
2021/01/05 01:26:23;;;;;;;;;;;-1.20;99.90;;;-2.16;84.77;94972.13;10464538;28;1772;-82
2021/01/05 01:31:26;;;;;;;;;;;0.00;99.90;;;-2.20;84.98;94974.34;10447313;28;2113;-82
2021/01/05 01:36:28;;;;;;;;;;;-1.10;99.90;;;-2.12;84.34;94975.13;10465642;28;1887;-83
2021/01/05 01:41:30;;;;;;;;;;;-1.20;99.90;;;-1.90;84.03;94973.72;10488296;28;1381;-81
2021/01/05 01:46:32;;;;;;;;;;;-0.50;99.90;;;-1.67;81.90;94973.91;10453867;28;1442;-81
2021/01/05 01:51:34;;;;;;;;;;;0.30;99.90;;;-1.66;81.59;94970.25;10446519;28;1300;-82
2021/01/05 01:56:36;;;;;;;;;;;-0.60;99.90;;;-1.81;82.37;94969.78;10467039;28;1896;-80
2021/01/05 02:01:38;;;;;;;;;;;-0.80;99.90;;;-1.83;82.40;94963.94;10461152;28;2037;-82
2021/01/05 02:06:40;;;;;;;;;;;-0.70;99.90;;;-1.91;82.33;94961.56;10446958;28;2065;-83
2021/01/05 02:11:42;;;;;;;;;;;0.30;99.90;;;-2.02;83.36;94967.56;10447125;28;1382;-81
2021/01/05 02:16:43;;;;;;;;;;;-0.90;99.90;;;-2.10;83.58;94967.78;10469287;28;1891;-83
2021/01/05 02:21:45;;;;;;;;;;;-1.10;99.90;;;-2.23;84.10;94963.44;10433335;28;1946;-81
2021/01/05 02:26:47;;;;;;;;;;;-0.50;99.90;;;-2.21;84.21;94956.94;10459743;28;1798;-81
2021/01/05 02:31:49;;;;;;;;;;;0.30;99.90;;;-2.06;83.21;94964.53;10431369;28;2041;-83
2021/01/05 02:36:51;;;;;;;;;;;-1.10;99.90;;;-2.08;82.65;94952.59;10431972;28;2026;-82
2021/01/05 02:41:53;;;;;;;;;;;-1.10;99.90;;;-1.89;81.68;94949.00;10447851;28;2021;-82
2021/01/05 02:46:55;;;;;;;;;;;-0.90;99.90;;;-1.87;81.31;94951.41;10432265;28;1923;-81
2021/01/05 02:51:57;;;;;;;;;;;0.80;99.90;;;-1.98;82.72;94945.00;10427890;28;2082;-82
2021/01/05 02:56:59;;;;;;;;;;;-0.90;99.90;;;-1.83;81.90;94940.22;10435877;28;2006;-82
2021/01/05 03:02:01;;;;;;;;;;;0.60;99.90;;;-1.78;81.61;94940.41;10447911;28;2017;-82
2021/01/05 03:07:04;;;;;;;;;;;-0.80;99.90;;;-1.79;81.54;94941.41;10426165;28;2030;-82
2021/01/05 03:12:06;;;;;;;;;;;-0.60;99.90;;;-1.68;82.49;94937.25;10437855;28;2073;-81
2021/01/05 03:17:08;;;;;;;;;;;1.30;99.90;;;-1.80;80.70;94944.25;10458005;28;2021;-82
2021/01/05 03:22:13;;;;;;;;;;;-0.60;99.90;;;-1.97;82.70;94947.44;10451950;28;2025;-82
2021/01/05 03:27:15;;;;;;;;;;;0.90;99.90;;;-1.99;82.46;94946.03;10459162;28;2097;-82
2021/01/05 03:32:17;;;;;;;;;;;0.60;99.90;;;-1.87;82.20;94946.94;10458124;28;2040;-82
2021/01/05 03:37:19;;;;;;;;;;;-0.90;99.90;;;-1.79;81.63;94944.03;10423060;28;1986;-81
2021/01/05 03:42:21;;;;;;;;;;;-0.80;99.90;;;-1.70;81.10;94953.28;10423290;28;2074;-81
2021/01/05 03:47:22;;;;;;;;;;;-0.70;99.90;;;-1.72;81.74;94946.59;10433254;28;2110;-82
2021/01/05 03:52:24;;;;;;;;;;;0.90;99.90;;;-1.78;80.91;94945.66;10439262;28;2002;-81
2021/01/05 03:57:26;;;;;;;;;;;-0.70;99.90;;;-1.81;80.20;94942.66;10435125;28;1962;-81
2021/01/05 04:02:28;;;;;;;;;;;0.60;99.90;;;-2.03;81.76;94936.97;10427231;28;1994;-82
2021/01/05 04:07:30;;;;;;;;;;;0.90;99.90;;;-2.00;81.54;94941.78;10431604;28;1974;-82
2021/01/05 04:12:32;;;;;;;;;;;-0.90;99.90;;;-2.17;82.31;94936.25;10442698;28;1907;-80
2021/01/05 04:17:34;;;;;;;;;;;0.50;99.90;;;-2.30;82.19;94939.78;10431973;28;2070;-81
2021/01/05 04:22:36;;;;;;;;;;;-1.20;99.90;;;-2.17;81.90;94947.59;10444511;28;2018;-83
2021/01/05 04:27:38;;;;;;;;;;;-0.40;99.90;;;-2.27;81.46;94942.00;10438782;28;2093;-82
2021/01/05 04:32:40;;;;;;;;;;;-1.20;99.90;;;-2.17;82.50;94950.22;10436626;28;1847;-82
2021/01/05 04:37:42;;;;;;;;;;;-0.80;99.90;;;-2.07;80.48;94949.75;10433687;28;1882;-82
2021/01/05 04:42:43;;;;;;;;;;;0.80;99.90;;;-1.80;81.27;94947.69;10434241;28;2002;-82
2021/01/05 04:47:45;;;;;;;;;;;-0.60;99.90;;;-1.70;80.15;94958.56;10450024;28;1970;-83
2021/01/05 04:52:47;;;;;;;;;;;-0.10;99.90;;;-1.86;79.25;94959.09;10443478;28;2149;-83
2021/01/05 04:57:49;;;;;;;;;;;-0.70;99.90;;;-1.82;79.49;94949.75;10431937;28;2155;-82
2021/01/05 05:02:51;;;;;;;;;;;1.90;99.90;;;-1.94;80.24;94954.09;10440651;28;2035;-83
2021/01/05 05:07:53;;;;;;;;;;;-0.90;99.90;;;-1.78;80.22;94956.19;10452060;28;2036;-82
2021/01/05 05:12:55;;;;;;;;;;;0.30;99.90;;;-1.87;79.76;94961.94;10457680;28;2100;-82
2021/01/05 05:17:57;;;;;;;;;;;-0.70;99.90;;;-1.91;80.51;94959.75;10448227;28;2082;-82
2021/01/05 05:23:01;;;;;;;;;;;-0.90;99.90;;;-1.89;80.54;94961.38;10455154;28;1982;-82
2021/01/05 05:28:05;;;;;;;;;;;-0.90;99.90;;;-1.83;80.50;94969.22;10418239;28;1983;-83
2021/01/05 05:33:07;;;;;;;;;;;0.20;99.90;;;-2.02;80.64;94970.19;10433595;28;2044;-82
2021/01/05 05:38:09;;;;;;;;;;;-0.80;99.90;;;-1.93;80.42;94985.50;10452479;28;2057;-81
2021/01/05 05:43:10;;;;;;;;;;;-1.00;99.90;;;-1.91;80.79;94987.91;10439328;28;2053;-80
2021/01/05 05:48:14;;;;;;;;;;;-0.90;99.90;;;-2.07;80.94;94991.09;10437568;28;1964;-83
2021/01/05 05:53:16;;;;;;;;;;;-1.00;99.90;;;-2.02;80.64;94978.09;10444452;28;2184;-82
2021/01/05 05:58:18;;;;;;;;;;;-1.00;99.90;;;-1.86;79.91;94992.53;10449388;28;2082;-81
2021/01/05 06:03:19;;;;;;;;;;;-0.80;99.90;;;-1.85;80.20;94994.13;10436843;28;2084;-82
2021/01/05 06:08:21;;;;;;;;;;;-0.70;99.90;;;-2.00;80.26;94999.75;10456026;28;2105;-83
2021/01/05 06:13:23;;;;;;;;;;;-1.00;99.90;;;-2.06;80.53;95001.41;10446778;28;2029;-82
2021/01/05 06:18:25;;;;;;;;;;;0.40;99.90;;;-1.95;79.79;95008.63;10454449;28;2145;-81
2021/01/05 06:23:27;;;;;;;;;;;0.80;99.90;;;-2.03;79.71;95002.81;10432267;28;2027;-83
2021/01/05 06:28:29;;;;;;;;;;;-1.00;99.90;;;-1.96;80.32;95006.19;10451588;28;2094;-83
2021/01/05 06:33:31;;;;;;;;;;;0.60;99.90;;;-1.84;79.66;95009.75;10443969;28;2009;-83
2021/01/05 06:38:32;;;;;;;;;;;-0.90;99.90;;;-1.70;79.53;95005.97;10437552;28;1986;-80
2021/01/05 06:43:43;;;;;;;;;;;-0.70;99.90;;;-1.72;79.30;95004.56;10439963;28;2029;-80
2021/01/05 06:48:48;;;;;;;;;;;-0.40;99.90;;;-1.64;78.66;95013.03;10424661;28;2229;-82
2021/01/05 06:59:49;;;;;;;;;;;-0.50;99.90;;;-1.90;78.49;95021.16;10426190;28;2222;-79
2021/01/05 07:04:56;;;;;;;;;;;-0.70;99.90;;;-1.94;79.64;95033.13;10455775;28;1416;-78
2021/01/05 07:09:58;;;;;;;;;;;-0.90;99.90;;;-1.88;79.29;95040.16;10469703;28;1505;-80
2021/01/05 07:15:03;;;;;;;;;;;-0.90;99.90;;;-1.82;78.58;95049.84;10459722;28;2145;-79
2021/01/05 07:20:05;;;;;;;;;;;-0.80;99.90;;;-1.78;78.65;95051.06;10460400;28;2143;-78
2021/01/05 07:25:07;;;;;;;;;;;-0.70;99.90;;;-1.55;78.33;95053.09;10456412;28;2065;-80
2021/01/05 07:30:28;;;;;;;;;;;-0.50;99.90;;;-1.43;78.00;95053.19;10444820;28;1242;-81
2021/01/05 07:35:33;;;;;;;;;;;0.00;99.90;;;-1.27;77.97;95063.19;10445164;28;1894;-80
2021/01/05 07:40:35;;;;;;;;;;;-0.30;99.90;;;-1.47;76.85;95067.81;10454774;28;2088;-81
2021/01/05 07:45:36;;;;;;;;;;;1.20;99.90;;;-1.49;77.54;95072.50;10439866;28;2004;-80
2021/01/05 07:50:38;;;;;;;;;;;0.30;99.90;;;-1.65;78.15;95077.31;10442504;28;2122;-79
2021/01/05 07:55:40;;;;;;;;;;;-0.50;99.90;;;-1.55;77.96;95082.06;10436233;28;2009;-80
2021/01/05 08:00:42;;;;;;;;;;;0.50;99.90;;;-1.81;78.19;95088.34;10437210;28;1859;-81
2021/01/05 08:05:44;;;;;;;;;;;-0.70;99.90;;;-1.64;78.77;95081.53;10428468;28;2073;-82
2021/01/05 08:10:46;;;;;;;;;;;-0.60;99.90;;;-1.60;78.00;95089.00;10434785;28;1362;-82
2021/01/05 08:15:48;;;;;;;;;;;-0.10;99.90;;;-1.44;78.29;95091.94;10420020;28;2021;-83
2021/01/05 08:20:52;;;;;;;;;;;-0.40;99.90;;;-1.31;76.76;95093.66;10425611;28;1887;-82
2021/01/05 08:25:55;;;;;;;;;;;-0.30;99.90;;;-1.32;77.26;95102.59;10436957;28;1998;-81
2021/01/05 08:30:57;;;;;;;;;;;-0.30;99.90;;;-1.37;76.93;95105.06;10445202;28;1930;-80
2021/01/05 08:35:59;;;;;;;;;;;-0.20;99.90;;;-1.44;77.26;95113.00;10447347;28;1939;-82
2021/01/05 08:41:03;;;;;;;;;;;0.50;99.90;;;-1.48;77.47;95105.75;10444464;28;2128;-82
2021/01/05 08:46:05;;;;;;;;;;;-0.30;99.90;;;-1.50;77.84;95110.44;10468441;28;2069;-83
2021/01/05 08:51:07;;;;;;;;;;;1.20;99.90;;;-1.30;76.27;95107.63;10467116;28;2037;-82
2021/01/05 08:56:09;;;;;;;;;;;-0.30;99.90;;;-1.16;76.45;95115.19;10455102;28;2150;-83
2021/01/05 09:01:10;;;;;;;;;;;-0.20;99.90;;;-1.01;75.40;95120.16;10446962;28;2017;-83
2021/01/05 09:06:12;;;;;;;;;;;-0.10;99.90;;;-1.02;76.05;95123.00;10443495;28;1966;-83
2021/01/05 09:11:14;;;;;;;;;;;0.00;99.90;;;-0.90;75.25;95115.97;10451971;28;1927;-82
2021/01/05 09:16:16;;;;;;;;;;;2.00;99.90;;;-1.01;76.03;95122.00;10458447;28;1961;-83
2021/01/05 09:21:22;;;;;;;;;;;0.60;99.90;;;-0.77;75.28;95129.03;10463810;28;1955;-83
2021/01/05 09:26:26;;;;;;;;;;;0.10;99.90;;;-0.77;74.79;95136.16;10462630;28;2153;-81
2021/01/05 09:31:28;;;;;;;;;;;0.20;99.90;;;-1.13;75.39;95137.72;10453759;28;1958;-80
2021/01/05 09:36:30;;;;;;;;;;;0.00;99.90;;;-1.28;76.23;95127.47;10440441;28;2001;-80
2021/01/05 09:41:33;;;;;;;;;;;-0.20;99.90;;;-1.00;75.69;95116.50;10452399;28;2100;-80
2021/01/05 09:46:35;;;;;;;;;;;-0.10;99.90;;;-0.75;75.64;95118.28;10555820;22;1994;-83
2021/01/05 09:51:41;;;;;;;;;;;1.10;99.90;;;-0.86;74.85;95122.44;10520742;28;1980;-80
2021/01/05 09:56:46;;;;;;;;;;;1.30;99.90;;;-0.93;75.28;95119.06;10502667;28;1899;-81
2021/01/05 10:01:49;;;;;;;;;;;0.00;99.90;;;-0.68;74.93;95114.56;10478281;28;1939;-82
2021/01/05 10:06:54;;;;;;;;;;;0.20;99.90;;;-0.61;74.49;95112.66;10490886;28;1924;-80
2021/01/05 10:11:58;;;;;;;;;;;0.40;99.90;;;-0.33;73.29;95106.03;10468819;28;1955;-81
2021/01/05 10:17:00;;;;;;;;;;;0.50;99.90;;;-0.09;72.61;95102.47;10474764;28;1928;-81
2021/01/05 10:22:09;;;;;;;;;;;0.80;99.90;;;-0.07;71.76;95096.94;10468798;28;1963;-81
2021/01/05 10:27:19;;;;;;;;;;;0.90;99.90;;;0.09;72.16;95087.59;10490838;28;1398;-80
2021/01/05 10:32:25;;;;;;;;;;;1.70;99.90;;;0.39;70.98;95075.16;10475394;28;1755;-84
2021/01/05 10:37:27;;;;;;;;;;;1.10;99.90;;;0.44;69.83;95072.63;10461630;28;1980;-82
2021/01/05 10:42:39;;;;;;;;;;;2.50;99.90;;;0.33;69.68;95078.72;10461018;28;1987;-84
2021/01/05 10:47:44;;;;;;;;;;;2.50;99.90;;;0.18;69.74;95079.13;10462618;28;1332;-81
2021/01/05 10:52:46;;;;;;;;;;;1.10;99.90;;;0.22;70.09;95068.91;10466522;28;1978;-82
2021/01/05 10:57:54;;;;;;;;;;;1.20;99.90;;;0.04;69.88;95069.78;10488333;28;2072;-79
2021/01/05 11:02:59;;;;;;;;;;;2.10;99.90;;;0.15;69.97;95070.84;10469212;28;2113;-84
2021/01/05 11:08:03;;;;;;;;;;;1.00;99.90;;;-0.15;71.20;95066.38;10456816;28;1929;-83
2021/01/05 11:13:05;;;;;;;;;;;1.60;99.90;;;-0.20;71.28;95068.88;10461467;28;2134;-82
2021/01/05 11:18:07;;;;;;;;;;;3.00;99.90;;;0.11;70.38;95059.09;10485303;28;2058;-82
2021/01/05 11:23:09;;;;;;;;;;;0.90;99.90;;;0.17;69.60;95052.91;10484182;28;2169;-82
2021/01/05 11:28:11;;;;;;;;;;;3.20;99.90;;;0.12;69.71;95042.22;10469196;28;2067;-85
2021/01/05 11:33:14;;;;;;;;;;;1.00;99.90;;;0.26;69.43;95038.38;10499814;28;1931;-85
2021/01/05 11:38:15;;;;;;;;;;;3.50;99.90;;;0.00;69.75;95036.94;10495590;28;2007;-80
2021/01/05 11:43:17;;;;;;;;;;;1.70;99.90;;;0.20;69.15;95031.34;10484505;28;1976;-83
2021/01/05 11:48:21;;;;;;;;;;;2.80;99.90;;;0.67;68.50;95020.81;10466048;28;2026;-83
2021/01/05 11:53:23;;;;;;;;;;;1.50;99.90;;;1.06;66.86;95020.09;10472735;28;2179;-81
2021/01/05 11:58:25;;;;;;;;;;;3.20;99.90;;;1.36;65.81;95016.47;10444492;28;2023;-83
2021/01/05 12:03:27;;;;;;;;;;;3.60;99.90;;;1.35;66.12;95014.88;10473313;28;1943;-82
2021/01/05 12:08:29;;;;;;;;;;;2.20;99.90;;;1.30;66.08;95020.06;10463227;28;2034;-80
2021/01/05 12:13:33;;;;;;;;;;;2.20;99.90;;;0.88;66.42;95027.34;10480870;28;2062;-83
2021/01/05 12:18:39;;;;;;;;;;;3.00;99.90;;;0.98;66.56;95036.31;10468593;28;1894;-82
2021/01/05 12:23:41;;;;;;;;;;;1.90;99.90;;;0.90;67.20;95034.03;10476526;28;1693;-82
2021/01/05 12:28:46;;;;;;;;;;;2.80;99.90;;;0.93;67.75;95025.63;10465959;28;1805;-83
2021/01/05 12:33:47;;;;;;;;;;;2.90;99.90;;;1.06;67.13;95032.50;10482409;28;1602;-82
2021/01/05 12:38:55;;;;;;;;;;;3.10;99.90;;;1.03;66.95;95031.16;10473234;28;1963;-83
2021/01/05 12:43:58;;;;;;;;;;;2.00;99.90;;;1.11;66.86;95037.13;10485078;28;1796;-81
2021/01/05 12:49:12;;;;;;;;;;;2.00;99.90;;;0.97;66.88;95037.38;10476635;28;1895;-81
2021/01/05 12:54:29;;;;;;;;;;;2.00;99.80;;;1.08;67.11;95036.56;10475962;28;1935;-81
2021/01/05 12:59:46;;;;;;;;;;;1.90;99.70;;;1.05;66.58;95034.34;10484278;28;2040;-82
2021/01/05 13:04:51;;;;;;;;;;;2.10;99.50;;;0.75;66.54;95033.69;10468613;28;1928;-83
2021/01/05 13:09:53;;;;;;;;;;;1.90;98.30;;;0.22;68.56;95024.78;10466221;28;1837;-80
2021/01/05 13:14:56;;;;;;;;;;;1.60;98.70;;;0.06;69.18;95024.63;10473903;28;1961;-81
2021/01/05 13:20:01;;;;;;;;;;;3.00;99.90;;;0.01;70.08;95016.59;10476738;28;1944;-82
2021/01/05 13:25:14;;;;;;;;;;;2.40;99.90;;;0.01;69.80;95024.50;10455208;28;1880;-83
2021/01/05 13:30:54;;;;;;;;;;;2.40;99.90;;;-0.36;70.89;95016.69;10484596;28;2022;-83
2021/01/05 13:35:56;;;;;;;;;;;0.90;99.90;;;-0.04;70.82;95004.84;10476971;28;1969;-82
2021/01/05 13:40:58;;;;;;;;;;;0.90;99.90;;;0.07;69.96;95005.13;10464386;28;1952;-84
2021/01/05 13:46:00;;;;;;;;;;;1.00;99.90;;;-0.18;70.62;95014.00;10487116;28;1994;-82
2021/01/05 13:51:08;;;;;;;;;;;1.00;99.90;;;-0.27;71.39;95016.13;10468333;28;1749;-82
2021/01/05 13:56:16;;;;;;;;;;;0.90;99.90;;;-0.32;72.46;95020.47;10459859;28;1963;-83
2021/01/05 14:01:20;;;;;;;;;;;1.60;99.90;;;-0.42;72.29;95022.88;10455607;28;1724;-82
2021/01/05 14:06:23;;;;;;;;;;;0.70;99.90;;;-0.56;72.70;95022.22;10478288;28;2162;-83
2021/01/05 14:11:25;;;;;;;;;;;1.00;99.90;;;-0.55;73.61;95024.66;10499314;28;2016;-80
2021/01/05 14:16:27;;;;;;;;;;;1.50;99.90;;;-0.54;72.96;95025.44;10469861;28;1883;-82
2021/01/05 14:21:29;;;;;;;;;;;1.40;99.90;;;-0.84;73.77;95025.41;10500508;28;1842;-82
2021/01/05 14:26:31;;;;;;;;;;;1.70;99.90;;;-0.80;74.19;95026.56;10495536;28;1813;-81
2021/01/05 14:31:33;;;;;;;;;;;1.60;99.90;;;-0.99;74.42;95027.59;10483127;28;1792;-82
2021/01/05 14:36:36;;;;;;;;;;;1.20;99.90;;;-1.13;74.96;95034.84;10466079;28;2322;-82
2021/01/05 14:41:37;;;;;;;;;;;1.30;99.90;;;-1.00;75.28;95033.91;10485655;28;1776;-81
2021/01/05 14:46:39;;;;;;;;;;;1.50;99.90;;;-1.10;76.30;95037.03;10472134;28;1624;-83
2021/01/05 14:51:42;;;;;;;;;;;0.70;99.90;;;-1.01;76.55;95037.59;10494259;28;2038;-81
2021/01/05 14:56:44;;;;;;;;;;;0.10;99.90;;;-0.87;75.28;95046.97;10488228;28;2062;-82
2021/01/05 15:01:49;;;;;;;;;;;2.10;99.90;;;-1.03;76.79;95061.53;10510208;28;2087;-82
2021/01/05 15:06:51;;;;;;;;;;;1.60;99.90;;;-0.87;75.73;95065.44;10467081;28;2118;-82
2021/01/05 15:11:55;;;;;;;;;;;0.10;99.90;;;-1.00;76.55;95068.22;10491043;28;2053;-83
2021/01/05 15:16:57;;;;;;;;;;;0.10;99.90;;;-1.00;77.16;95065.56;10468544;28;1898;-82
2021/01/05 15:21:59;;;;;;;;;;;1.20;99.90;;;-1.17;77.79;95067.97;10486504;28;2054;-82
2021/01/05 15:27:03;;;;;;;;;;;-0.10;99.90;;;-1.03;77.04;95071.28;10474385;28;2087;-82
2021/01/05 15:32:05;;;;;;;;;;;1.40;99.90;;;-0.92;77.23;95071.34;10489430;28;2042;-80
2021/01/05 15:37:07;;;;;;;;;;;0.50;99.90;;;-0.73;77.13;95069.53;10470050;28;1976;-81
2021/01/05 15:42:08;;;;;;;;;;;0.90;99.90;;;-0.57;76.32;95066.31;10460711;28;1889;-80
2021/01/05 15:47:12;;;;;;;;;;;2.10;99.90;;;-0.40;75.55;95068.31;10479517;28;2008;-81
2021/01/05 15:52:13;;;;;;;;;;;2.40;99.90;;;-0.40;75.65;95070.97;10484275;28;1785;-81
2021/01/05 15:57:15;;;;;;;;;;;0.60;99.90;;;-0.49;75.85;95069.66;10504139;28;1983;-81
2021/01/05 16:02:21;;;;;;;;;;;0.70;99.90;;;-0.63;75.89;95069.84;10494458;28;2007;-80
2021/01/05 16:07:23;;;;;;;;;;;2.10;99.90;;;-0.82;76.56;95065.59;10488308;28;1975;-82
2021/01/05 16:12:25;;;;;;;;;;;1.00;99.90;;;-0.76;76.70;95059.44;10496043;28;1903;-79
2021/01/05 16:17:27;;;;;;;;;;;1.50;99.90;;;-0.68;77.30;95060.97;10504264;28;1886;-81
2021/01/05 16:22:35;;;;;;;;;;;0.30;99.90;;;-0.58;76.84;95067.31;10477007;28;1527;-81
2021/01/05 16:27:37;;;;;;;;;;;1.40;99.90;;;-0.65;76.88;95071.88;10482838;28;1846;-82
2021/01/05 16:32:39;;;;;;;;;;;0.80;99.90;;;-0.62;76.95;95070.63;10479847;28;2077;-80
2021/01/05 16:37:41;;;;;;;;;;;0.30;99.90;;;-0.62;77.00;95065.34;10484061;28;1918;-80
2021/01/05 16:42:43;;;;;;;;;;;1.80;99.90;;;-0.69;77.05;95062.78;10462487;28;1904;-82
2021/01/05 16:47:45;;;;;;;;;;;1.60;99.90;;;-0.70;77.70;95065.63;10478100;28;1939;-80
2021/01/05 16:52:47;;;;;;;;;;;1.80;99.90;;;-0.57;77.65;95063.66;10461836;28;2104;-83
2021/01/05 16:57:49;;;;;;;;;;;1.00;99.90;;;-0.40;77.83;95044.56;10481738;28;1971;-84
2021/01/05 17:02:51;;;;;;;;;;;0.60;99.90;;;-0.16;77.36;95048.13;10499999;28;1889;-83
2021/01/05 17:07:53;;;;;;;;;;;0.80;99.90;;;-0.09;76.71;95060.19;10485796;28;1996;-80
2021/01/05 17:12:55;;;;;;;;;;;0.80;99.90;;;-0.07;76.38;95057.31;10491888;28;1884;-81
2021/01/05 17:18:03;;;;;;;;;;;3.30;99.90;;;-0.29;76.13;95064.94;10470765;28;1944;-83
2021/01/05 17:23:05;;;;;;;;;;;0.90;99.90;;;-0.42;77.83;95065.13;10468370;28;2181;-80
2021/01/05 17:28:09;;;;;;;;;;;1.80;99.90;;;-0.58;77.47;95055.94;10459843;28;1410;-81
2021/01/05 17:33:13;;;;;;;;;;;0.50;99.90;;;-0.74;78.23;95061.84;10456846;28;1562;-79
2021/01/05 17:38:17;;;;;;;;;;;1.70;99.90;;;-0.83;78.45;95061.31;10467773;28;1960;-80
2021/01/05 17:43:19;;;;;;;;;;;1.40;99.90;;;-0.68;79.19;95056.47;10476054;28;1913;-80
2021/01/05 17:48:22;;;;;;;;;;;0.60;99.90;;;-0.59;78.02;95059.63;10470242;28;2149;-81
2021/01/05 17:53:24;;;;;;;;;;;0.40;99.90;;;-0.61;78.71;95062.50;10486280;28;2286;-80
2021/01/05 17:58:27;;;;;;;;;;;0.40;99.90;;;-0.69;78.90;95070.72;10472078;28;2087;-80
2021/01/05 18:03:30;;;;;;;;;;;1.90;99.90;;;-0.68;78.45;95056.47;10492156;28;2269;-81
2021/01/05 18:08:32;;;;;;;;;;;1.50;99.90;;;-0.64;78.84;95052.34;10477123;28;2069;-81
2021/01/05 18:13:34;;;;;;;;;;;0.40;99.90;;;-0.44;79.64;95041.56;10489644;28;2040;-81
2021/01/05 18:18:52;;;;;;;;;;;1.20;99.90;;;-0.40;78.11;95034.81;10494383;28;1890;-82
2021/01/05 18:23:55;;;;;;;;;;;1.10;99.90;;;-0.44;79.22;95043.41;10493357;28;1983;-80
2021/01/05 18:28:59;;;;;;;;;;;0.60;99.90;;;-0.18;78.61;95042.25;10474569;28;1626;-80
2021/01/05 18:34:04;;;;;;;;;;;3.40;99.90;;;-0.16;77.23;95038.34;10462942;28;2086;-81
2021/01/05 18:39:05;;;;;;;;;;;2.20;99.90;;;0.01;77.72;95045.66;10477768;28;1965;-82
2021/01/05 18:44:07;;;;;;;;;;;0.90;99.90;;;0.04;77.05;95037.25;10469162;28;1885;-83
2021/01/05 18:49:09;;;;;;;;;;;1.00;99.90;;;0.02;76.42;95031.41;10487987;28;1613;-82
2021/01/05 18:54:12;;;;;;;;;;;1.10;99.90;;;0.00;77.22;95036.94;10491973;28;1326;-82
2021/01/05 18:59:13;;;;;;;;;;;1.10;99.90;;;-0.12;77.18;95036.88;10495293;28;1949;-82
2021/01/05 19:04:16;;;;;;;;;;;1.00;99.90;;;-0.08;76.97;95039.88;10475938;28;1337;-83
2021/01/05 19:09:18;;;;;;;;;;;1.80;99.90;;;-0.13;77.40;95037.88;10502745;28;1547;-80
2021/01/05 19:14:19;;;;;;;;;;;2.80;99.90;;;-0.07;77.36;95036.19;10493360;28;1272;-80
2021/01/05 19:19:23;;;;;;;;;;;1.00;99.90;;;0.01;76.95;95043.81;10494951;28;1879;-80
2021/01/05 19:24:25;;;;;;;;;;;1.00;99.90;;;0.02;77.01;95055.19;10455594;28;1387;-81
2021/01/05 19:29:27;;;;;;;;;;;1.00;99.90;;;0.10;76.44;95062.78;10470050;28;1672;-82
2021/01/05 19:34:28;;;;;;;;;;;1.10;99.90;;;0.13;76.10;95062.34;10469838;28;1641;-80
2021/01/05 19:39:30;;;;;;;;;;;1.20;99.90;;;0.13;75.96;95051.78;10474720;28;1899;-82
2021/01/05 19:44:32;;;;;;;;;;;1.20;99.90;;;0.13;76.41;95054.44;10446036;28;1639;-80
2021/01/05 19:49:34;;;;;;;;;;;1.20;99.90;;;0.20;76.17;95055.94;10475587;28;1221;-80
2021/01/05 19:54:36;;;;;;;;;;;2.10;99.90;;;0.09;75.75;95061.19;10466676;28;1668;-81
2021/01/05 19:59:37;;;;;;;;;;;1.90;99.90;;;-0.15;76.24;95062.94;10451163;28;1972;-81
2021/01/05 20:04:39;;;;;;;;;;;2.00;99.90;;;-0.13;76.83;95053.75;10455447;28;1355;-81
2021/01/05 20:09:41;;;;;;;;;;;1.00;99.90;;;-0.09;76.07;95056.75;10449407;28;1487;-82
2021/01/05 20:14:43;;;;;;;;;;;1.00;99.90;;;-0.19;76.07;95062.59;10438498;28;1358;-81
2021/01/05 20:19:45;;;;;;;;;;;1.00;99.90;;;-0.08;76.35;95042.50;10476294;28;1887;-79
2021/01/05 20:24:47;;;;;;;;;;;2.10;99.90;;;-0.13;75.79;95040.53;10480010;28;1390;-81
2021/01/05 20:29:48;;;;;;;;;;;1.00;99.90;;;-0.34;76.16;95041.84;10446803;28;1678;-82
2021/01/05 20:34:50;;;;;;;;;;;0.90;99.90;;;-0.22;76.81;95039.25;10471730;28;1400;-81
2021/01/05 20:39:52;;;;;;;;;;;1.80;99.90;;;-0.15;76.02;95039.16;10467249;28;1918;-82
2021/01/05 20:44:55;;;;;;;;;;;0.90;99.90;;;-0.13;76.65;95035.25;10479084;28;1354;-81
2021/01/05 20:49:57;;;;;;;;;;;2.90;99.90;;;-0.12;76.51;95038.72;10447749;28;1698;-80
2021/01/05 20:54:59;;;;;;;;;;;1.90;99.90;;;-0.11;76.47;95041.13;10465905;28;1362;-82
2021/01/05 21:00:05;;;;;;;;;;;1.00;99.90;;;0.03;76.39;95027.72;10483884;28;1923;-82
2021/01/05 21:05:09;;;;;;;;;;;2.20;99.90;;;-0.14;75.41;95033.63;10511784;28;1247;-82
2021/01/05 21:10:12;;;;;;;;;;;1.00;99.90;;;-0.38;76.73;95043.31;10447920;28;1959;-82
2021/01/05 21:15:14;;;;;;;;;;;0.80;99.90;;;-0.73;77.85;95037.06;10446622;28;2070;-79
2021/01/05 21:20:16;;;;;;;;;;;0.60;99.90;;;-0.74;78.34;95036.25;10458288;28;1825;-81
2021/01/05 21:25:21;;;;;;;;;;;1.00;99.90;;;-0.68;78.19;95038.00;10460020;28;1908;-83
2021/01/05 21:30:23;;;;;;;;;;;2.10;99.90;;;-0.64;77.87;95031.25;10451993;28;2071;-81
2021/01/05 21:35:25;;;;;;;;;;;0.50;99.90;;;-0.75;77.64;95034.66;10445715;28;1985;-82
2021/01/05 21:40:27;;;;;;;;;;;0.40;99.90;;;-0.70;77.81;95023.41;10439594;28;1852;-81
2021/01/05 21:45:30;;;;;;;;;;;0.60;99.90;;;-0.88;79.69;95008.41;10462133;28;1847;-81
2021/01/05 21:50:32;;;;;;;;;;;0.30;99.90;;;-0.85;79.17;95007.97;10448070;28;1988;-82
2021/01/05 21:55:34;;;;;;;;;;;1.90;99.90;;;-1.06;80.87;95027.69;10459995;28;1997;-82
2021/01/05 22:00:36;;;;;;;;;;;0.10;99.90;;;-1.10;81.02;95003.56;10460136;28;1261;-81
2021/01/05 22:05:38;;;;;;;;;;;0.00;99.90;;;-1.00;80.94;95010.16;10448820;28;1666;-81
2021/01/05 22:10:40;;;;;;;;;;;0.30;99.90;;;-0.95;80.38;95015.59;10451467;28;1567;-80
2021/01/05 22:15:41;;;;;;;;;;;1.60;99.90;;;-1.16;80.88;95015.00;10457830;28;1995;-82
2021/01/05 22:20:43;;;;;;;;;;;0.60;99.90;;;-1.25;81.92;95013.66;10466512;28;1688;-81
2021/01/05 22:25:45;;;;;;;;;;;-0.10;99.90;;;-1.27;82.46;94999.06;10468448;28;1280;-82
2021/01/05 22:30:47;;;;;;;;;;;1.10;99.90;;;-1.27;82.46;95009.63;10468694;28;1499;-81
2021/01/05 22:35:49;;;;;;;;;;;-0.20;99.90;;;-1.19;82.30;95010.16;10457421;28;1979;-80
2021/01/05 22:40:51;;;;;;;;;;;0.50;99.90;;;-1.06;82.71;95011.06;10479625;28;1560;-82
2021/01/05 22:45:53;;;;;;;;;;;-0.10;99.90;;;-1.04;81.81;95014.25;10454917;28;1582;-80
2021/01/05 22:50:59;;;;;;;;;;;1.60;99.90;;;-1.09;81.89;95018.34;10481957;28;1540;-80
2021/01/05 22:56:03;;;;;;;;;;;0.00;99.90;;;-1.03;81.93;95021.94;10446651;28;1910;-80
2021/01/05 23:01:05;;;;;;;;;;;0.00;99.90;;;-1.00;81.24;95010.97;10489400;28;1625;-83
2021/01/05 23:06:07;;;;;;;;;;;0.00;99.90;;;-1.01;81.65;95008.56;10488953;28;1370;-83
2021/01/05 23:11:09;;;;;;;;;;;1.10;99.90;;;-1.01;81.00;95003.28;10460880;28;1552;-81
2021/01/05 23:16:11;;;;;;;;;;;0.10;99.90;;;-1.04;81.86;94995.81;10456389;28;1959;-81
2021/01/05 23:21:13;;;;;;;;;;;0.10;99.90;;;-1.12;81.50;94981.88;10489710;28;1281;-81
2021/01/05 23:26:15;;;;;;;;;;;0.00;99.90;;;-1.02;80.07;94983.19;10470468;28;1684;-82
2021/01/05 23:31:16;;;;;;;;;;;0.00;99.90;;;-1.02;80.01;94980.56;10489020;28;1620;-80